Time;durP1;ratioP1;P1;durP2;ratioP2;P2;SDS_P1;SDS_P2;PMS_P1;PMS_P2;Temp;Humidity;BMP_temperature;BMP_pressure;BME280_temperature;BME280_humidity;BME280_pressure;Samples;Min_cycle;Max_cycle;Signal;HPM_P1;HPM_P2
2023/10/30 00:00:19;;;;;;;0.38;0.38;;;12.60;99.90;;;;;;5093509;28;20222;-62
2023/10/30 00:02:45;;;;;;;0.00;0.00;;;12.60;99.90;;;;;;5093693;28;20188;-62
2023/10/30 00:05:11;;;;;;;0.00;0.00;;;12.60;99.90;;;;;;5093277;28;20546;-62
2023/10/30 00:07:36;;;;;;;0.00;0.00;;;12.60;99.90;;;;;;5092539;28;20179;-61
2023/10/30 00:10:02;;;;;;;0.00;0.00;;;12.60;99.90;;;;;;5093550;28;20245;-61
2023/10/30 00:12:28;;;;;;;0.00;0.00;;;12.50;99.90;;;;;;5093413;28;20192;-62
2023/10/30 00:14:53;;;;;;;0.00;0.00;;;12.60;99.90;;;;;;5093678;28;20670;-61
2023/10/30 00:17:19;;;;;;;0.00;0.00;;;12.50;99.90;;;;;;5093393;28;20681;-61
2023/10/30 00:19:44;;;;;;;0.00;0.00;;;12.50;99.90;;;;;;5092921;28;20258;-62
2023/10/30 00:22:11;;;;;;;0.00;0.00;;;12.60;99.90;;;;;;5093264;28;20199;-61
2023/10/30 00:24:38;;;;;;;0.00;0.00;;;12.50;99.90;;;;;;5093034;28;20669;-61
2023/10/30 00:27:03;;;;;;;0.00;0.00;;;12.60;99.90;;;;;;5093341;28;20180;-61
2023/10/30 00:29:29;;;;;;;0.00;0.00;;;12.60;99.90;;;;;;5093499;28;20195;-62
2023/10/30 00:31:54;;;;;;;0.00;0.00;;;12.60;99.90;;;;;;5092976;28;20203;-61
2023/10/30 00:34:20;;;;;;;0.00;0.00;;;12.60;99.90;;;;;;5093084;28;20207;-63
2023/10/30 00:36:45;;;;;;;0.00;0.00;;;12.60;99.90;;;;;;5092660;28;20226;-62
2023/10/30 00:39:11;;;;;;;0.00;0.00;;;12.60;99.90;;;;;;5093286;28;20199;-61
2023/10/30 00:41:36;;;;;;;0.00;0.00;;;12.60;99.90;;;;;;5092281;28;20187;-61
2023/10/30 00:44:02;;;;;;;0.00;0.00;;;12.50;99.90;;;;;;5092935;28;20211;-62
2023/10/30 00:46:28;;;;;;;0.00;0.00;;;12.50;99.90;;;;;;5092665;28;20267;-62
2023/10/30 00:48:53;;;;;;;0.00;0.00;;;12.60;99.90;;;;;;5093092;28;20180;-61
2023/10/30 00:51:19;;;;;;;0.00;0.00;;;12.50;99.90;;;;;;5092706;28;20180;-62
2023/10/30 00:53:44;;;;;;;0.00;0.00;;;12.50;99.90;;;;;;5092330;28;20191;-61
2023/10/30 00:56:10;;;;;;;0.05;0.05;;;12.60;99.90;;;;;;5091699;28;20176;-61
2023/10/30 00:58:35;;;;;;;0.00;0.00;;;12.50;99.90;;;;;;5092743;28;20239;-62
2023/10/30 01:01:01;;;;;;;0.00;0.00;;;12.50;99.90;;;;;;5092851;28;20196;-62
2023/10/30 01:03:27;;;;;;;0.00;0.00;;;12.50;99.90;;;;;;5092771;28;20184;-61
2023/10/30 01:05:59;;;;;;;0.00;0.00;;;12.50;99.90;;;;;;5092791;28;20181;-62
2023/10/30 01:08:26;;;;;;;0.00;0.00;;;12.40;99.90;;;;;;5092196;28;20697;-62
2023/10/30 01:10:52;;;;;;;0.00;0.00;;;12.40;99.90;;;;;;5092773;28;20184;-62
2023/10/30 01:13:18;;;;;;;0.00;0.00;;;12.40;99.90;;;;;;5092116;28;20249;-62
2023/10/30 01:15:43;;;;;;;0.00;0.00;;;12.30;99.90;;;;;;5092461;28;20219;-61
2023/10/30 01:18:09;;;;;;;0.00;0.00;;;12.30;99.90;;;;;;5092409;28;20203;-62
2023/10/30 01:20:38;;;;;;;0.00;0.00;;;12.30;99.90;;;;;;5092379;28;20701;-62
2023/10/30 01:23:04;;;;;;;0.00;0.00;;;12.30;99.90;;;;;;5089673;28;20168;-60
2023/10/30 01:25:29;;;;;;;0.00;0.00;;;12.30;99.90;;;;;;5091932;28;20190;-61
2023/10/30 01:27:55;;;;;;;0.00;0.00;;;12.30;99.90;;;;;;5092061;28;20172;-61
2023/10/30 01:30:20;;;;;;;0.00;0.00;;;12.30;99.90;;;;;;5092141;28;20177;-61
2023/10/30 01:32:46;;;;;;;0.00;0.00;;;12.20;99.90;;;;;;5091602;28;20248;-60
2023/10/30 01:35:12;;;;;;;0.00;0.00;;;12.20;99.90;;;;;;5091985;28;20168;-61
2023/10/30 01:37:37;;;;;;;0.00;0.00;;;12.20;99.90;;;;;;5092034;28;20190;-61
2023/10/30 01:40:03;;;;;;;0.00;0.00;;;12.20;99.90;;;;;;5091549;28;20208;-61
2023/10/30 01:42:29;;;;;;;0.00;0.00;;;12.20;99.90;;;;;;5090558;28;20547;-61
2023/10/30 01:44:56;;;;;;;0.00;0.00;;;12.20;99.90;;;;;;5091942;28;20175;-61
2023/10/30 01:47:23;;;;;;;0.00;0.00;;;12.20;99.90;;;;;;5091537;28;20827;-62
2023/10/30 01:49:49;;;;;;;0.00;0.00;;;12.20;99.90;;;;;;5091603;28;20203;-61
2023/10/30 01:52:16;;;;;;;0.00;0.00;;;12.20;99.90;;;;;;5091637;28;20176;-62
2023/10/30 01:54:43;;;;;;;0.00;0.00;;;12.20;99.90;;;;;;5091370;28;20275;-61
2023/10/30 01:57:09;;;;;;;0.00;0.00;;;12.20;99.90;;;;;;5091662;28;20184;-62
2023/10/30 01:59:34;;;;;;;0.00;0.00;;;12.20;99.90;;;;;;5091203;28;20707;-62
2023/10/30 02:02:01;;;;;;;0.00;0.00;;;12.20;99.90;;;;;;5091473;28;20172;-63
2023/10/30 02:04:27;;;;;;;0.00;0.00;;;12.20;99.90;;;;;;5090285;28;20203;-62
2023/10/30 02:06:52;;;;;;;0.00;0.00;;;12.10;99.90;;;;;;5090933;28;20260;-62
2023/10/30 02:09:18;;;;;;;0.15;0.15;;;12.10;99.90;;;;;;5090986;28;20631;-62
2023/10/30 02:11:43;;;;;;;0.00;0.00;;;12.10;99.90;;;;;;5090997;28;20245;-62
2023/10/30 02:14:09;;;;;;;0.00;0.00;;;12.10;99.90;;;;;;5090756;28;20269;-62
2023/10/30 02:16:34;;;;;;;0.00;0.00;;;12.10;99.90;;;;;;5090815;28;20194;-63
2023/10/30 02:19:00;;;;;;;0.00;0.00;;;12.10;99.90;;;;;;5090717;28;20204;-62
2023/10/30 02:21:25;;;;;;;0.00;0.00;;;12.00;99.90;;;;;;5091064;28;20270;-62
2023/10/30 02:23:51;;;;;;;0.25;0.25;;;12.10;99.90;;;;;;5091083;28;20515;-62
2023/10/30 02:26:16;;;;;;;0.00;0.00;;;12.10;99.90;;;;;;5090800;28;20208;-62
2023/10/30 02:28:42;;;;;;;0.00;0.00;;;12.00;99.90;;;;;;5090632;28;20203;-62
2023/10/30 02:31:07;;;;;;;0.05;0.05;;;12.00;99.90;;;;;;5090749;28;20181;-62
2023/10/30 02:33:33;;;;;;;0.00;0.00;;;12.10;99.90;;;;;;5090575;28;20255;-62
2023/10/30 02:35:58;;;;;;;0.00;0.00;;;12.10;99.90;;;;;;5091171;28;20180;-61
2023/10/30 02:38:24;;;;;;;0.00;0.00;;;12.00;99.90;;;;;;5090944;28;20298;-61
2023/10/30 02:40:49;;;;;;;0.00;0.00;;;12.00;99.90;;;;;;5090761;28;20188;-62
2023/10/30 02:43:15;;;;;;;0.00;0.00;;;12.00;99.90;;;;;;5090877;28;20172;-62
2023/10/30 02:45:40;;;;;;;0.00;0.00;;;12.00;99.90;;;;;;5090569;28;20185;-61
2023/10/30 02:48:06;;;;;;;0.00;0.00;;;12.00;99.90;;;;;;5090441;28;20180;-62
2023/10/30 02:50:31;;;;;;;0.00;0.00;;;11.90;99.90;;;;;;5090367;28;20180;-61
2023/10/30 02:52:57;;;;;;;0.00;0.00;;;11.90;99.90;;;;;;5091322;28;20631;-61
2023/10/30 02:55:22;;;;;;;0.00;0.00;;;12.00;99.90;;;;;;5091116;28;20202;-60
2023/10/30 02:57:48;;;;;;;0.00;0.00;;;11.90;99.90;;;;;;5091240;28;20259;-61
2023/10/30 03:00:14;;;;;;;0.10;0.10;;;11.90;99.90;;;;;;5090979;28;20592;-63
2023/10/30 03:02:39;;;;;;;0.00;0.00;;;11.90;99.90;;;;;;5091193;28;20173;-62
2023/10/30 03:05:05;;;;;;;0.00;0.00;;;11.90;99.90;;;;;;5091176;28;20183;-62
2023/10/30 03:07:32;;;;;;;0.00;0.00;;;11.90;99.90;;;;;;5091136;28;20249;-61
2023/10/30 03:09:57;;;;;;;0.00;0.00;;;11.90;99.90;;;;;;5091248;28;20176;-61
2023/10/30 03:12:23;;;;;;;0.00;0.00;;;11.90;99.90;;;;;;5091177;28;20637;-62
2023/10/30 03:14:49;;;;;;;0.00;0.00;;;11.90;99.90;;;;;;5091283;28;20176;-62
2023/10/30 03:17:14;;;;;;;0.00;0.00;;;11.90;99.90;;;;;;5091022;28;20176;-62
2023/10/30 03:19:40;;;;;;;0.00;0.00;;;11.90;99.90;;;;;;5091176;28;20242;-62
2023/10/30 03:22:05;;;;;;;0.10;0.10;;;11.90;99.90;;;;;;5090763;28;20635;-61
2023/10/30 03:24:31;;;;;;;0.00;0.00;;;12.00;99.90;;;;;;5090938;28;20713;-61
2023/10/30 03:26:57;;;;;;;0.00;0.00;;;12.00;99.90;;;;;;5090760;28;20180;-62
2023/10/30 03:29:23;;;;;;;0.00;0.00;;;12.00;99.90;;;;;;5090562;28;20184;-62
2023/10/30 03:31:52;;;;;;;0.17;0.17;;;12.00;99.90;;;;;;5094426;28;20187;-62
2023/10/30 03:34:19;;;;;;;0.00;0.00;;;12.00;99.90;;;;;;5094429;28;20215;-62
2023/10/30 03:36:44;;;;;;;0.00;0.00;;;12.00;99.90;;;;;;5094538;28;20176;-61
2023/10/30 03:39:10;;;;;;;0.00;0.00;;;12.00;99.90;;;;;;5094074;28;20257;-61
2023/10/30 03:41:37;;;;;;;0.00;0.00;;;12.10;99.90;;;;;;5092710;28;20186;-61
2023/10/30 03:44:02;;;;;;;0.00;0.00;;;12.00;99.90;;;;;;5092564;28;20230;-62
2023/10/30 03:46:28;;;;;;;0.00;0.00;;;12.00;99.90;;;;;;5093864;28;20199;-61
2023/10/30 03:48:54;;;;;;;0.00;0.00;;;11.90;99.90;;;;;;5094367;28;20633;-61
2023/10/30 03:51:19;;;;;;;0.00;0.00;;;11.90;99.90;;;;;;5094404;28;20176;-62
2023/10/30 03:53:45;;;;;;;0.00;0.00;;;12.00;99.90;;;;;;5094078;28;20184;-61
2023/10/30 03:56:11;;;;;;;0.00;0.00;;;11.90;99.90;;;;;;5075776;28;20297;-61
2023/10/30 03:58:37;;;;;;;0.00;0.00;;;11.90;99.90;;;;;;5082932;28;20269;-61
2023/10/30 04:01:07;;;;;;;0.00;0.00;;;12.00;99.90;;;;;;5093190;28;20172;-61
2023/10/30 04:03:33;;;;;;;0.00;0.00;;;11.90;99.90;;;;;;5086159;28;20211;-62
2023/10/30 04:06:03;;;;;;;0.00;0.00;;;12.00;99.90;;;;;;5093738;28;20628;-61
2023/10/30 04:08:28;;;;;;;0.00;0.00;;;12.00;99.90;;;;;;5093453;28;20187;-62
2023/10/30 04:10:54;;;;;;;0.00;0.00;;;11.90;99.90;;;;;;5093210;28;20623;-61
2023/10/30 04:13:19;;;;;;;0.00;0.00;;;12.00;99.90;;;;;;5093233;28;20225;-62
2023/10/30 04:15:46;;;;;;;0.00;0.00;;;12.00;99.90;;;;;;5092878;28;20188;-61
2023/10/30 04:18:12;;;;;;;0.00;0.00;;;12.00;99.90;;;;;;5093549;28;20708;-63
2023/10/30 04:20:37;;;;;;;0.00;0.00;;;12.00;99.90;;;;;;5093446;28;20191;-61
2023/10/30 04:23:03;;;;;;;0.00;0.00;;;12.10;99.90;;;;;;5092029;28;20651;-61
2023/10/30 04:25:29;;;;;;;0.00;0.00;;;12.10;99.90;;;;;;5092253;28;20180;-61
2023/10/30 04:27:54;;;;;;;0.00;0.00;;;12.10;99.90;;;;;;5091964;28;20222;-61
2023/10/30 04:30:20;;;;;;;0.00;0.00;;;12.10;99.90;;;;;;5092937;28;20573;-60
2023/10/30 04:32:45;;;;;;;0.00;0.00;;;12.10;99.90;;;;;;5093471;28;20215;-61
2023/10/30 04:35:11;;;;;;;0.00;0.00;;;12.10;99.90;;;;;;5093481;28;20195;-61
2023/10/30 04:37:36;;;;;;;0.00;0.00;;;12.10;99.90;;;;;;5093583;28;20262;-61
2023/10/30 04:40:04;;;;;;;0.00;0.00;;;12.10;99.90;;;;;;5092757;28;20218;-62
2023/10/30 04:42:30;;;;;;;0.00;0.00;;;12.10;99.90;;;;;;5092400;28;20268;-62
2023/10/30 04:44:55;;;;;;;0.00;0.00;;;12.10;99.90;;;;;;5099787;28;20274;-61
2023/10/30 04:47:21;;;;;;;0.00;0.00;;;12.10;99.90;;;;;;5097319;28;20180;-60
2023/10/30 04:49:46;;;;;;;0.00;0.00;;;12.10;99.90;;;;;;5092964;28;20180;-61
2023/10/30 04:52:12;;;;;;;0.00;0.00;;;12.10;99.90;;;;;;5092631;28;20180;-61
2023/10/30 04:54:37;;;;;;;0.00;0.00;;;12.10;99.90;;;;;;5093076;28;20176;-64
2023/10/30 04:57:03;;;;;;;0.00;0.00;;;12.10;99.90;;;;;;5090505;28;20202;-61
2023/10/30 04:59:29;;;;;;;0.00;0.00;;;12.10;99.90;;;;;;5092305;28;20214;-60
2023/10/30 05:01:54;;;;;;;0.00;0.00;;;12.10;99.90;;;;;;5093100;28;20180;-60
2023/10/30 05:04:20;;;;;;;0.00;0.00;;;12.10;99.90;;;;;;5092245;28;20180;-61
2023/10/30 05:06:46;;;;;;;0.00;0.00;;;12.10;99.90;;;;;;5092832;28;20716;-60
2023/10/30 05:09:12;;;;;;;0.00;0.00;;;12.10;99.90;;;;;;5093111;28;20183;-61
2023/10/30 05:11:38;;;;;;;0.00;0.00;;;12.00;99.90;;;;;;5092859;28;20211;-61
2023/10/30 05:14:04;;;;;;;0.00;0.00;;;12.00;99.90;;;;;;5092967;28;20923;-61
2023/10/30 05:16:30;;;;;;;0.00;0.00;;;12.00;99.90;;;;;;5092816;28;20180;-61
2023/10/30 05:18:56;;;;;;;0.00;0.00;;;12.10;99.90;;;;;;5092608;28;20266;-60
2023/10/30 05:21:21;;;;;;;0.00;0.00;;;12.10;99.90;;;;;;5092718;28;20515;-61
2023/10/30 05:23:48;;;;;;;0.00;0.00;;;12.00;99.90;;;;;;5092875;28;20237;-60
2023/10/30 05:26:14;;;;;;;0.00;0.00;;;12.10;99.90;;;;;;5092462;28;20658;-61
2023/10/30 05:28:39;;;;;;;0.00;0.00;;;12.10;99.90;;;;;;5092638;28;20181;-61
2023/10/30 05:31:06;;;;;;;0.00;0.00;;;12.10;99.90;;;;;;5092517;28;20184;-61
2023/10/30 05:33:32;;;;;;;0.00;0.00;;;12.10;99.90;;;;;;5090752;28;20232;-61
2023/10/30 05:35:57;;;;;;;0.00;0.00;;;12.30;99.90;;;;;;5092427;28;20670;-60
2023/10/30 05:38:23;;;;;;;0.00;0.00;;;12.10;99.90;;;;;;5092054;28;20229;-61
2023/10/30 05:40:48;;;;;;;0.00;0.00;;;12.10;99.90;;;;;;5092195;28;20670;-61
2023/10/30 05:43:14;;;;;;;0.00;0.00;;;12.10;99.90;;;;;;5092251;28;20172;-61
2023/10/30 05:45:40;;;;;;;0.00;0.00;;;12.20;99.90;;;;;;5092370;28;20180;-61
2023/10/30 05:48:05;;;;;;;0.00;0.00;;;12.10;99.90;;;;;;5092366;28;20176;-60
2023/10/30 05:50:31;;;;;;;0.00;0.00;;;12.10;99.90;;;;;;5092251;28;20172;-59
2023/10/30 05:52:56;;;;;;;0.00;0.00;;;12.10;99.90;;;;;;5091378;28;20540;-59
2023/10/30 05:55:22;;;;;;;0.00;0.00;;;12.10;99.90;;;;;;5092039;28;20225;-60
2023/10/30 05:57:48;;;;;;;0.00;0.00;;;12.00;99.90;;;;;;5092241;28;20176;-61
2023/10/30 06:00:14;;;;;;;0.00;0.00;;;12.10;99.90;;;;;;5091854;28;20638;-61
2023/10/30 06:02:40;;;;;;;0.00;0.00;;;12.00;99.90;;;;;;5092103;28;20685;-60
2023/10/30 06:05:08;;;;;;;0.00;0.00;;;12.00;99.90;;;;;;5092012;28;20180;-60
2023/10/30 06:07:34;;;;;;;0.00;0.00;;;12.00;99.90;;;;;;5091835;28;20190;-60
2023/10/30 06:10:00;;;;;;;0.00;0.00;;;12.10;99.90;;;;;;5090774;28;20278;-60
2023/10/30 06:12:26;;;;;;;0.00;0.00;;;12.10;99.90;;;;;;5091894;28;20202;-60
2023/10/30 06:14:51;;;;;;;0.00;0.00;;;12.10;99.90;;;;;;5091911;28;20168;-60
2023/10/30 06:17:17;;;;;;;0.00;0.00;;;12.10;99.90;;;;;;5091593;28;20179;-60
2023/10/30 06:19:42;;;;;;;0.00;0.00;;;12.10;99.90;;;;;;5090442;28;20212;-60
2023/10/30 06:22:08;;;;;;;0.00;0.00;;;12.10;99.90;;;;;;5091634;28;20174;-61
2023/10/30 06:24:34;;;;;;;0.43;0.30;;;12.10;99.90;;;;;;5091594;28;20180;-61
2023/10/30 06:26:59;;;;;;;0.00;0.00;;;12.20;99.90;;;;;;5091703;28;20223;-61
2023/10/30 06:29:25;;;;;;;0.00;0.00;;;12.20;99.90;;;;;;5091677;28;20172;-61
2023/10/30 06:31:50;;;;;;;0.00;0.00;;;12.30;99.90;;;;;;5090109;28;20168;-61
2023/10/30 06:34:16;;;;;;;0.00;0.00;;;12.30;99.90;;;;;;5091552;28;20180;-60
2023/10/30 06:36:41;;;;;;;0.00;0.00;;;12.30;99.90;;;;;;5091670;28;20180;-60
2023/10/30 06:39:07;;;;;;;0.00;0.00;;;12.30;99.90;;;;;;5091274;28;20208;-60
2023/10/30 06:41:32;;;;;;;0.00;0.00;;;12.30;99.90;;;;;;5091545;28;20212;-60
2023/10/30 06:43:58;;;;;;;0.00;0.00;;;12.40;99.90;;;;;;5091504;28;20190;-60
2023/10/30 06:46:23;;;;;;;0.00;0.00;;;12.40;99.90;;;;;;5091436;28;20172;-61
2023/10/30 06:48:49;;;;;;;0.00;0.00;;;12.60;99.90;;;;;;5091574;28;20711;-61
2023/10/30 06:51:14;;;;;;;0.00;0.00;;;12.50;99.90;;;;;;5091342;28;20176;-61
2023/10/30 06:53:40;;;;;;;0.00;0.00;;;12.60;99.90;;;;;;5091442;28;20528;-60
2023/10/30 06:56:06;;;;;;;0.00;0.00;;;12.60;99.90;;;;;;5091405;28;20207;-60
2023/10/30 06:58:31;;;;;;;0.00;0.00;;;12.70;99.90;;;;;;5091183;28;20290;-60
2023/10/30 07:01:02;;;;;;;0.00;0.00;;;12.80;99.90;;;;;;5091376;28;20171;-61
2023/10/30 07:03:28;;;;;;;0.00;0.00;;;12.80;99.90;;;;;;5091688;28;20187;-61
2023/10/30 07:05:54;;;;;;;0.00;0.00;;;12.80;99.90;;;;;;5095410;28;20172;-61
2023/10/30 07:08:19;;;;;;;0.00;0.00;;;12.90;99.90;;;;;;5095275;28;20216;-60
2023/10/30 07:10:45;;;;;;;0.00;0.00;;;13.00;99.90;;;;;;5095397;28;20195;-61
2023/10/30 07:13:10;;;;;;;0.00;0.00;;;13.20;99.90;;;;;;5095365;28;20226;-60
2023/10/30 07:15:36;;;;;;;0.00;0.00;;;13.60;99.90;;;;;;5095096;28;20213;-61
2023/10/30 07:18:01;;;;;;;0.00;0.00;;;14.20;99.90;;;;;;5095238;28;20172;-61
2023/10/30 07:20:27;;;;;;;0.00;0.00;;;14.80;99.90;;;;;;5093980;28;20647;-61
2023/10/30 07:22:52;;;;;;;0.00;0.00;;;15.30;99.90;;;;;;5095080;28;20679;-61
2023/10/30 07:25:18;;;;;;;0.00;0.00;;;15.90;99.90;;;;;;5094977;28;20203;-61
2023/10/30 07:27:43;;;;;;;0.00;0.00;;;16.50;99.90;;;;;;5095119;28;20211;-61
2023/10/30 07:30:09;;;;;;;0.00;0.00;;;17.00;99.90;;;;;;5094880;28;20653;-60
2023/10/30 07:32:35;;;;;;;0.00;0.00;;;17.40;99.90;;;;;;5094454;28;20219;-61
2023/10/30 07:35:01;;;;;;;0.00;0.00;;;17.70;99.90;;;;;;5094818;28;20187;-61
2023/10/30 07:37:27;;;;;;;0.00;0.00;;;18.20;99.90;;;;;;5094690;28;20635;-62
2023/10/30 07:39:53;;;;;;;0.00;0.00;;;18.50;99.90;;;;;;5094711;28;20200;-61
2023/10/30 07:42:19;;;;;;;0.00;0.00;;;18.70;99.90;;;;;;5094566;28;20227;-61
2023/10/30 07:44:45;;;;;;;0.00;0.00;;;18.90;99.90;;;;;;5094547;28;20175;-61
2023/10/30 07:47:10;;;;;;;0.00;0.00;;;18.90;99.90;;;;;;5094634;28;20172;-61
2023/10/30 07:49:36;;;;;;;0.00;0.00;;;19.00;99.90;;;;;;5094488;28;20183;-61
2023/10/30 07:52:01;;;;;;;0.00;0.00;;;19.00;99.90;;;;;;5094654;28;20177;-62
2023/10/30 07:54:27;;;;;;;0.00;0.00;;;18.80;99.90;;;;;;5094455;28;20255;-62
2023/10/30 07:56:52;;;;;;;0.00;0.00;;;18.50;99.90;;;;;;5094551;28;20230;-62
2023/10/30 07:59:18;;;;;;;0.00;0.00;;;18.40;99.90;;;;;;5094324;28;20215;-62
2023/10/30 08:01:45;;;;;;;0.00;0.00;;;18.30;99.90;;;;;;5094449;28;20208;-62
2023/10/30 08:04:11;;;;;;;0.00;0.00;;;18.20;99.90;;;;;;5094382;28;20179;-62
2023/10/30 08:06:36;;;;;;;0.00;0.00;;;18.00;99.90;;;;;;5094147;28;20168;-62
2023/10/30 08:09:02;;;;;;;0.00;0.00;;;17.90;99.90;;;;;;5094351;28;20191;-62
2023/10/30 08:11:27;;;;;;;0.00;0.00;;;17.80;99.90;;;;;;5094141;28;20187;-61
2023/10/30 08:13:53;;;;;;;0.00;0.00;;;17.80;99.90;;;;;;5094175;28;20183;-60
2023/10/30 08:16:19;;;;;;;0.00;0.00;;;17.80;99.90;;;;;;5093443;28;20198;-61
2023/10/30 08:18:46;;;;;;;0.00;0.00;;;17.70;99.90;;;;;;5094040;28;20207;-60
2023/10/30 08:21:13;;;;;;;0.00;0.00;;;17.80;99.90;;;;;;5094079;28;20172;-61
2023/10/30 08:23:39;;;;;;;0.00;0.00;;;17.70;99.90;;;;;;5093931;28;20518;-61
2023/10/30 08:26:07;;;;;;;0.00;0.00;;;17.70;99.90;;;;;;5094092;28;20229;-61
2023/10/30 08:28:34;;;;;;;0.00;0.00;;;17.70;99.90;;;;;;5093766;28;20187;-61
2023/10/30 08:30:59;;;;;;;0.00;0.00;;;17.80;99.90;;;;;;5093927;28;20173;-61
2023/10/30 08:33:25;;;;;;;0.00;0.00;;;17.80;99.90;;;;;;5093700;28;20235;-61
2023/10/30 08:35:52;;;;;;;0.00;0.00;;;17.90;99.90;;;;;;5093841;28;20176;-62
2023/10/30 08:38:17;;;;;;;0.00;0.00;;;18.00;99.90;;;;;;5093756;28;20180;-62
2023/10/30 08:40:43;;;;;;;0.00;0.00;;;17.80;99.90;;;;;;5093855;28;20176;-61
2023/10/30 08:43:08;;;;;;;0.00;0.00;;;17.80;99.90;;;;;;5093531;28;20180;-61
2023/10/30 08:45:34;;;;;;;0.00;0.00;;;17.80;99.90;;;;;;5093432;28;20234;-60
2023/10/30 08:48:00;;;;;;;0.00;0.00;;;17.90;99.90;;;;;;5093666;28;20176;-61
2023/10/30 08:50:25;;;;;;;0.00;0.00;;;18.00;99.90;;;;;;5126394;27;20180;-61
2023/10/30 08:52:51;;;;;;;0.00;0.00;;;18.10;99.90;;;;;;5093563;28;20172;-61
2023/10/30 08:55:16;;;;;;;0.00;0.00;;;18.10;99.90;;;;;;5093263;28;20188;-61
2023/10/30 08:57:42;;;;;;;0.00;0.00;;;18.10;99.90;;;;;;5093420;28;20168;-61
2023/10/30 09:00:08;;;;;;;0.00;0.00;;;18.10;99.90;;;;;;5093291;28;20204;-61
2023/10/30 09:02:34;;;;;;;0.00;0.00;;;18.00;99.90;;;;;;5093088;28;20184;-61
2023/10/30 09:04:59;;;;;;;0.00;0.00;;;18.00;99.90;;;;;;5093315;28;20259;-61
2023/10/30 09:07:25;;;;;;;0.00;0.00;;;18.10;99.90;;;;;;5093109;28;20601;-60
2023/10/30 09:09:51;;;;;;;0.00;0.00;;;18.00;99.90;;;;;;5092048;28;20172;-61
2023/10/30 09:12:17;;;;;;;0.00;0.00;;;18.10;99.90;;;;;;5092932;28;20176;-61
2023/10/30 09:14:42;;;;;;;0.00;0.00;;;18.10;99.90;;;;;;5092945;28;20195;-61
2023/10/30 09:17:08;;;;;;;0.00;0.00;;;18.20;99.90;;;;;;5093219;28;20203;-61
2023/10/30 09:19:37;;;;;;;0.00;0.00;;;18.20;99.90;;;;;;5092643;28;20227;-61
2023/10/30 09:22:03;;;;;;;0.00;0.00;;;18.30;99.90;;;;;;5092942;28;20172;-61
2023/10/30 09:24:29;;;;;;;0.00;0.00;;;18.40;99.90;;;;;;5092776;28;20200;-61
2023/10/30 09:26:55;;;;;;;0.00;0.00;;;18.40;99.90;;;;;;5092107;28;20656;-61
2023/10/30 09:29:20;;;;;;;0.00;0.00;;;18.40;99.90;;;;;;5092254;28;20190;-61
2023/10/30 09:31:46;;;;;;;0.00;0.00;;;18.50;99.90;;;;;;5092560;28;20180;-61
2023/10/30 09:34:12;;;;;;;0.00;0.00;;;18.50;99.90;;;;;;5092566;28;20183;-61
2023/10/30 09:36:37;;;;;;;0.00;0.00;;;18.50;99.90;;;;;;5125195;27;20188;-61
2023/10/30 09:39:03;;;;;;;0.00;0.00;;;18.50;99.90;;;;;;5092430;28;20203;-61
2023/10/30 09:41:29;;;;;;;0.00;0.00;;;18.40;99.90;;;;;;5092207;28;20206;-61
2023/10/30 09:43:56;;;;;;;0.00;0.00;;;18.30;99.90;;;;;;5092228;28;20180;-61
2023/10/30 09:46:26;;;;;;;0.00;0.00;;;18.40;99.90;;;;;;5091025;28;20183;-60
2023/10/30 09:48:54;;;;;;;0.00;0.00;;;18.40;99.90;;;;;;5092300;28;20182;-61
2023/10/30 09:51:21;;;;;;;0.00;0.00;;;18.40;99.90;;;;;;5092515;28;20629;-61
2023/10/30 09:53:48;;;;;;;0.00;0.00;;;18.40;99.90;;;;;;5092350;28;20185;-61
2023/10/30 09:56:17;;;;;;;0.00;0.00;;;18.50;99.90;;;;;;5092001;28;20707;-61
2023/10/30 09:58:43;;;;;;;0.00;0.00;;;18.50;99.90;;;;;;5092289;28;20238;-61
2023/10/30 10:01:08;;;;;;;0.00;0.00;;;18.50;99.90;;;;;;5092213;28;20578;-62
2023/10/30 10:03:34;;;;;;;0.00;0.00;;;18.40;99.90;;;;;;5092028;28;20172;-61
2023/10/30 10:06:00;;;;;;;0.00;0.00;;;18.10;99.90;;;;;;5092161;28;20240;-61
2023/10/30 10:08:26;;;;;;;0.00;0.00;;;18.00;99.90;;;;;;5091935;28;20183;-60
2023/10/30 10:10:55;;;;;;;0.00;0.00;;;17.90;99.90;;;;;;5092005;28;20208;-60
2023/10/30 10:13:21;;;;;;;0.00;0.00;;;17.90;99.90;;;;;;5091934;28;20176;-61
2023/10/30 10:15:47;;;;;;;0.00;0.00;;;18.00;99.90;;;;;;5092033;28;20172;-62
2023/10/30 10:18:26;;;;;;;0.00;0.00;;;17.80;99.90;;;;;;5091841;28;20195;-61
2023/10/30 10:21:00;;;;;;;0.00;0.00;;;17.90;99.90;;;;;;5091986;28;20172;-61
2023/10/30 10:23:31;;;;;;;0.00;0.00;;;17.90;99.90;;;;;;5090567;28;20179;-60
2023/10/30 10:25:58;;;;;;;0.00;0.00;;;17.90;99.90;;;;;;5090376;28;20183;-61
2023/10/30 10:28:25;;;;;;;0.00;0.00;;;18.00;99.90;;;;;;5091707;28;20276;-61
2023/10/30 10:30:53;;;;;;;0.00;0.00;;;18.00;99.90;;;;;;5091701;28;20225;-61
2023/10/30 10:33:23;;;;;;;0.00;0.00;;;18.00;99.90;;;;;;5091579;28;20314;-61
2023/10/30 10:35:56;;;;;;;0.00;0.00;;;18.00;99.90;;;;;;5091633;28;20251;-60
2023/10/30 10:38:22;;;;;;;0.00;0.00;;;18.00;99.90;;;;;;5089983;28;20222;-60
2023/10/30 10:40:50;;;;;;;0.00;0.00;;;18.00;99.90;;;;;;5091448;28;20184;-61
2023/10/30 10:43:20;;;;;;;0.00;0.00;;;18.00;99.90;;;;;;5091318;28;20179;-61
2023/10/30 10:45:50;;;;;;;0.00;0.00;;;18.00;99.90;;;;;;5091851;28;20627;-61
2023/10/30 10:48:16;;;;;;;0.00;0.00;;;17.90;99.90;;;;;;5091185;28;20968;-61
2023/10/30 10:50:44;;;;;;;0.32;0.32;;;17.90;99.90;;;;;;5091234;28;20271;-61
2023/10/30 10:53:11;;;;;;;0.00;0.00;;;17.70;99.90;;;;;;5091472;28;20187;-61
2023/10/30 10:55:44;;;;;;;0.00;0.00;;;17.60;99.90;;;;;;5091228;28;20221;-61
2023/10/30 10:58:37;;;;;;;0.00;0.00;;;17.60;99.90;;;;;;5089968;28;20180;-61
2023/10/30 11:01:06;;;;;;;0.00;0.00;;;17.50;99.90;;;;;;5091327;28;20180;-61
2023/10/30 11:03:32;;;;;;;0.00;0.00;;;17.40;99.90;;;;;;5090870;28;20252;-61
2023/10/30 11:05:58;;;;;;;0.00;0.00;;;17.30;99.90;;;;;;5091174;28;20176;-61
2023/10/30 11:08:39;;;;;;;0.00;0.00;;;17.30;99.90;;;;;;5091208;28;20173;-61
2023/10/30 11:11:37;;;;;;;0.00;0.00;;;17.30;99.90;;;;;;5091492;28;20168;-61
2023/10/30 11:14:22;;;;;;;0.00;0.00;;;17.40;99.90;;;;;;5090771;28;20182;-61
2023/10/30 11:16:58;;;;;;;0.00;0.00;;;17.40;99.90;;;;;;5090021;28;20182;-62
2023/10/30 11:19:26;;;;;;;0.00;0.00;;;17.40;99.90;;;;;;5091021;28;20226;-62
2023/10/30 11:21:51;;;;;;;0.10;0.10;;;17.40;99.90;;;;;;5091123;28;20186;-61
2023/10/30 11:24:37;;;;;;;0.00;0.00;;;17.40;99.90;;;;;;5090971;28;20168;-61
2023/10/30 11:27:28;;;;;;;0.00;0.00;;;17.40;99.90;;;;;;5091221;28;20160;-62
2023/10/30 11:30:06;;;;;;;0.00;0.00;;;17.30;99.90;;;;;;5090978;28;20178;-61
2023/10/30 11:32:49;;;;;;;0.00;0.00;;;17.30;99.90;;;;;;5090814;28;20247;-61
2023/10/30 11:35:19;;;;;;;0.00;0.00;;;17.30;99.90;;;;;;5091008;28;20194;-61
2023/10/30 11:37:45;;;;;;;0.00;0.00;;;17.20;99.90;;;;;;5090978;28;20210;-63
2023/10/30 11:40:14;;;;;;;0.00;0.00;;;17.20;99.90;;;;;;5090827;28;20563;-62
2023/10/30 11:42:43;;;;;;;0.00;0.00;;;17.20;99.90;;;;;;5090844;28;20192;-61
2023/10/30 11:45:22;;;;;;;0.00;0.00;;;17.10;99.90;;;;;;5090877;28;20639;-60
2023/10/30 11:47:55;;;;;;;0.00;0.00;;;17.00;99.90;;;;;;5090888;28;20164;-61
2023/10/30 11:50:28;;;;;;;0.00;0.00;;;16.90;99.90;;;;;;5091000;28;20180;-60
2023/10/30 11:52:57;;;;;;;0.00;0.00;;;16.90;99.90;;;;;;5094530;28;20176;-61
2023/10/30 11:55:23;;;;;;;0.00;0.00;;;16.90;99.90;;;;;;5094300;28;20178;-61
2023/10/30 11:57:49;;;;;;;0.00;0.00;;;16.90;99.90;;;;;;5094318;28;20529;-61
2023/10/30 12:00:15;;;;;;;0.00;0.00;;;16.90;99.90;;;;;;5093971;28;20214;-61
2023/10/30 12:02:41;;;;;;;0.00;0.00;;;16.90;99.90;;;;;;5094450;28;20176;-61
2023/10/30 12:05:07;;;;;;;0.00;0.00;;;16.90;99.90;;;;;;5094098;28;20172;-60
2023/10/30 12:07:33;;;;;;;0.00;0.00;;;16.90;99.90;;;;;;5093925;28;20228;-60
2023/10/30 12:10:03;;;;;;;0.00;0.00;;;16.90;99.90;;;;;;5094132;28;20199;-61
2023/10/30 12:12:30;;;;;;;0.00;0.00;;;16.90;99.90;;;;;;5094061;28;20237;-61
2023/10/30 12:14:58;;;;;;;0.00;0.00;;;16.90;99.90;;;;;;5093979;28;20176;-61
2023/10/30 12:17:24;;;;;;;0.00;0.00;;;16.90;99.90;;;;;;5093987;28;20180;-61
2023/10/30 12:19:49;;;;;;;0.00;0.00;;;16.90;99.90;;;;;;5093826;28;20771;-61
2023/10/30 12:22:15;;;;;;;0.00;0.00;;;16.90;99.90;;;;;;5093656;28;20172;-61
2023/10/30 12:24:42;;;;;;;0.00;0.00;;;16.80;99.90;;;;;;5093987;28;20309;-61
2023/10/30 12:27:08;;;;;;;0.00;0.00;;;16.80;99.90;;;;;;5093864;28;20179;-61
2023/10/30 12:29:34;;;;;;;0.00;0.00;;;16.80;99.90;;;;;;5093564;28;20184;-61
2023/10/30 12:32:04;;;;;;;0.00;0.00;;;16.80;99.90;;;;;;5093555;28;20182;-61
2023/10/30 12:34:34;;;;;;;0.00;0.00;;;16.80;99.90;;;;;;5093658;28;20188;-61
2023/10/30 12:36:59;;;;;;;0.00;0.00;;;16.80;99.90;;;;;;5093694;28;20268;-61
2023/10/30 12:39:26;;;;;;;0.05;0.05;;;16.90;99.90;;;;;;5093532;28;20294;-60
2023/10/30 12:41:55;;;;;;;0.00;0.00;;;16.80;99.90;;;;;;5093660;28;20255;-61
2023/10/30 12:44:21;;;;;;;0.00;0.00;;;16.90;99.90;;;;;;5093486;28;20179;-61